Time;durP1;ratioP1;P1;durP2;ratioP2;P2;SDS_P1;SDS_P2;PMS_P1;PMS_P2;Temp;Humidity;BMP_temperature;BMP_pressure;BME280_temperature;BME280_humidity;BME280_pressure;Samples;Min_cycle;Max_cycle;Signal;HPM_P1;HPM_P2
2023/10/30 00:01:40;;;;;;;1999.90;999.90;;;12.10;99.90;;;;;;5114689;28;20070;-72
2023/10/30 00:04:08;;;;;;;1999.90;999.90;;;12.10;99.90;;;;;;5114403;28;20036;-72
2023/10/30 00:06:33;;;;;;;1999.90;999.90;;;12.10;99.90;;;;;;5114020;28;20067;-72
2023/10/30 00:08:59;;;;;;;1999.90;999.90;;;12.10;99.90;;;;;;5114519;28;20468;-72
2023/10/30 00:11:25;;;;;;;1999.90;999.90;;;12.10;99.90;;;;;;5114522;28;20032;-72
2023/10/30 00:13:50;;;;;;;1999.90;999.90;;;12.00;99.90;;;;;;5095633;28;20042;-72
2023/10/30 00:16:16;;;;;;;1999.90;999.90;;;12.00;99.90;;;;;;5114084;28;20028;-72
2023/10/30 00:18:42;;;;;;;1999.90;999.90;;;12.00;99.90;;;;;;5114406;28;20039;-72
2023/10/30 00:21:08;;;;;;;1999.90;999.90;;;12.00;99.90;;;;;;5114030;28;20032;-72
2023/10/30 00:23:34;;;;;;;1999.90;999.90;;;12.00;99.90;;;;;;5114186;28;20036;-72
2023/10/30 00:26:00;;;;;;;1999.90;999.90;;;12.00;99.90;;;;;;5114122;28;20509;-72
2023/10/30 00:28:27;;;;;;;1999.90;999.90;;;12.00;99.90;;;;;;5114225;28;20050;-72
2023/10/30 00:30:53;;;;;;;1999.90;999.90;;;12.00;99.90;;;;;;5114250;28;20032;-72
2023/10/30 00:33:19;;;;;;;1999.90;999.90;;;12.00;99.90;;;;;;5113784;28;20436;-72
2023/10/30 00:35:44;;;;;;;1999.90;999.90;;;12.00;99.90;;;;;;5113584;28;20093;-72
2023/10/30 00:38:10;;;;;;;1999.90;999.90;;;12.00;99.90;;;;;;5114223;28;20477;-72
2023/10/30 00:40:35;;;;;;;1999.90;999.90;;;12.00;99.90;;;;;;5095418;28;20036;-72
2023/10/30 00:43:01;;;;;;;1999.90;999.90;;;12.00;99.90;;;;;;5113921;28;20028;-72
2023/10/30 00:45:26;;;;;;;1999.90;999.90;;;12.00;99.90;;;;;;5116048;27;20036;-72
2023/10/30 00:47:52;;;;;;;1999.90;999.90;;;11.90;99.90;;;;;;5117424;28;20051;-72
2023/10/30 00:50:18;;;;;;;1999.90;999.90;;;11.90;99.90;;;;;;5117430;28;20390;-72
2023/10/30 00:52:43;;;;;;;1999.90;999.90;;;12.00;99.90;;;;;;5117087;28;20032;-73
2023/10/30 00:55:09;;;;;;;1999.90;999.90;;;12.00;99.90;;;;;;5116699;28;20051;-72
2023/10/30 00:57:35;;;;;;;1999.90;999.90;;;12.00;99.90;;;;;;5117088;28;20040;-72
2023/10/30 01:00:00;;;;;;;1999.90;999.90;;;12.00;99.90;;;;;;5117427;28;20589;-72
2023/10/30 01:02:26;;;;;;;1999.90;999.90;;;12.00;99.90;;;;;;5116982;28;20414;-72
2023/10/30 01:04:51;;;;;;;1999.90;999.90;;;11.90;99.90;;;;;;5116958;28;20028;-72
2023/10/30 01:07:17;;;;;;;1999.90;999.90;;;11.90;99.90;;;;;;5117004;28;20024;-72
2023/10/30 01:09:43;;;;;;;1999.90;999.90;;;11.90;99.90;;;;;;5117077;28;20036;-72
2023/10/30 01:12:09;;;;;;;1999.90;999.90;;;11.90;99.90;;;;;;5116963;28;20024;-72
2023/10/30 01:14:34;;;;;;;1999.90;999.90;;;11.90;99.90;;;;;;5116766;28;20036;-72
2023/10/30 01:17:00;;;;;;;1999.90;999.90;;;11.90;99.90;;;;;;5116733;28;20047;-72
2023/10/30 01:19:26;;;;;;;1999.90;999.90;;;11.90;99.90;;;;;;5117149;28;20043;-72
2023/10/30 01:21:51;;;;;;;1999.90;999.90;;;11.80;99.90;;;;;;5117021;28;20035;-72
2023/10/30 01:24:17;;;;;;;1999.90;999.90;;;11.80;99.90;;;;;;5116824;28;20111;-72
2023/10/30 01:26:42;;;;;;;1999.90;999.90;;;11.80;99.90;;;;;;5116547;28;20036;-72
2023/10/30 01:29:08;;;;;;;1999.90;999.90;;;11.80;99.90;;;;;;5116851;28;20036;-72
2023/10/30 01:31:33;;;;;;;1999.90;999.90;;;11.80;99.90;;;;;;5116655;28;20032;-72
2023/10/30 01:33:59;;;;;;;1999.90;999.90;;;11.70;99.90;;;;;;5097793;28;20103;-72
2023/10/30 01:36:25;;;;;;;1999.90;999.90;;;11.70;99.90;;;;;;5116484;28;20028;-72
2023/10/30 01:38:51;;;;;;;1999.90;999.90;;;11.70;99.90;;;;;;5116718;28;20028;-72
2023/10/30 01:41:17;;;;;;;1999.90;999.90;;;11.70;99.90;;;;;;5098011;28;20024;-72
2023/10/30 01:43:42;;;;;;;1999.90;999.90;;;11.70;99.90;;;;;;5116332;28;20040;-72
2023/10/30 01:46:08;;;;;;;1999.90;999.90;;;11.70;99.90;;;;;;5116280;28;20086;-72
2023/10/30 01:48:35;;;;;;;1999.90;999.90;;;11.70;99.90;;;;;;5116612;28;20036;-72
2023/10/30 01:51:02;;;;;;;1999.90;999.90;;;11.70;99.90;;;;;;5116576;28;20038;-72
2023/10/30 01:53:29;;;;;;;1999.90;999.90;;;11.60;99.90;;;;;;5115286;28;20032;-72
2023/10/30 01:55:56;;;;;;;1999.90;999.90;;;11.70;99.90;;;;;;5115207;28;20040;-72
2023/10/30 01:58:23;;;;;;;1999.90;999.90;;;11.60;99.90;;;;;;5116222;28;20039;-72
2023/10/30 02:00:50;;;;;;;1999.90;999.90;;;11.60;99.90;;;;;;5097749;28;20032;-72
2023/10/30 02:03:16;;;;;;;1999.90;999.90;;;11.60;99.90;;;;;;5116295;28;20489;-72
2023/10/30 02:05:42;;;;;;;1999.90;999.90;;;11.60;99.90;;;;;;5116246;28;20032;-72
2023/10/30 02:08:09;;;;;;;1999.90;999.90;;;11.60;99.90;;;;;;5116325;28;20038;-72
2023/10/30 02:10:35;;;;;;;1999.90;999.90;;;11.50;99.90;;;;;;5116004;28;20921;-72
2023/10/30 02:13:05;;;;;;;1999.90;999.90;;;11.50;99.90;;;;;;5115854;28;20074;-72
2023/10/30 02:15:30;;;;;;;1999.90;999.90;;;11.50;99.90;;;;;;5115665;28;20485;-72
2023/10/30 02:17:56;;;;;;;1999.90;999.90;;;11.50;99.90;;;;;;5115690;28;20037;-73
2023/10/30 02:20:22;;;;;;;1999.90;999.90;;;11.50;99.90;;;;;;5097776;28;20130;-72
2023/10/30 02:22:48;;;;;;;1999.90;999.90;;;11.40;99.90;;;;;;5116171;28;20111;-72
2023/10/30 02:25:22;;;;;;;1999.90;999.90;;;11.40;99.90;;;;;;5115493;28;20028;-72
2023/10/30 02:27:48;;;;;;;1999.90;999.90;;;11.40;99.90;;;;;;5115570;28;20024;-72
2023/10/30 02:30:14;;;;;;;1999.90;999.90;;;11.40;99.90;;;;;;5115886;28;20040;-72
2023/10/30 02:32:42;;;;;;;1999.90;999.90;;;11.40;99.90;;;;;;5115973;28;20040;-72
2023/10/30 02:35:11;;;;;;;1999.90;999.90;;;11.40;99.90;;;;;;5115409;28;20135;-72
2023/10/30 02:37:37;;;;;;;1999.90;999.90;;;11.40;99.90;;;;;;5115369;28;20028;-72
2023/10/30 02:40:03;;;;;;;1999.90;999.90;;;11.40;99.90;;;;;;5115386;28;20036;-72
2023/10/30 02:42:28;;;;;;;1999.90;999.90;;;11.30;99.90;;;;;;5097219;28;20024;-72
2023/10/30 02:44:54;;;;;;;1999.90;999.90;;;11.30;99.90;;;;;;5096867;28;20046;-73
2023/10/30 02:47:20;;;;;;;1999.90;999.90;;;11.40;99.90;;;;;;5114602;28;20074;-72
2023/10/30 02:49:46;;;;;;;1999.90;999.90;;;11.30;99.90;;;;;;5115490;28;20104;-72
2023/10/30 02:52:11;;;;;;;1999.90;999.90;;;11.30;99.90;;;;;;5115589;28;20105;-72
2023/10/30 02:54:37;;;;;;;1999.90;999.90;;;11.40;99.90;;;;;;5114898;28;20127;-72
2023/10/30 02:57:02;;;;;;;1999.90;999.90;;;11.40;99.90;;;;;;5096607;28;20115;-72
2023/10/30 02:59:28;;;;;;;1999.90;999.90;;;11.40;99.90;;;;;;5115410;28;20032;-72
2023/10/30 03:01:53;;;;;;;1999.90;999.90;;;11.40;99.90;;;;;;5115337;28;20094;-72
2023/10/30 03:04:19;;;;;;;1999.90;999.90;;;11.40;99.90;;;;;;5115209;28;20032;-72
2023/10/30 03:06:44;;;;;;;1999.90;999.90;;;11.40;99.90;;;;;;5115108;27;20032;-72
2023/10/30 03:09:10;;;;;;;1999.90;999.90;;;11.40;99.90;;;;;;5115267;28;20490;-72
2023/10/30 03:11:35;;;;;;;1999.90;999.90;;;11.40;99.90;;;;;;5115367;28;20024;-72
2023/10/30 03:14:01;;;;;;;1999.90;999.90;;;11.40;99.90;;;;;;5115010;28;20040;-72
2023/10/30 03:16:27;;;;;;;1999.90;999.90;;;11.40;99.90;;;;;;5114824;28;20058;-72
2023/10/30 03:18:52;;;;;;;1999.90;999.90;;;11.40;99.90;;;;;;5115281;28;20036;-72
2023/10/30 03:21:19;;;;;;;1999.90;999.90;;;11.30;99.90;;;;;;5115145;28;20032;-72
2023/10/30 03:23:44;;;;;;;1999.90;999.90;;;11.40;99.90;;;;;;5096215;28;20035;-72
2023/10/30 03:26:10;;;;;;;1999.90;999.90;;;11.40;99.90;;;;;;5114628;28;20044;-72
2023/10/30 03:28:35;;;;;;;1999.90;999.90;;;11.40;99.90;;;;;;5115024;28;20497;-72
2023/10/30 03:31:09;;;;;;;1999.90;999.90;;;11.40;99.90;;;;;;5115232;28;20028;-72
2023/10/30 03:33:35;;;;;;;1999.90;999.90;;;11.40;99.90;;;;;;5114945;28;20065;-71
2023/10/30 03:36:01;;;;;;;1999.90;999.90;;;11.40;99.90;;;;;;5114357;28;20185;-72
2023/10/30 03:38:27;;;;;;;1999.90;999.90;;;11.40;99.90;;;;;;5114665;28;20036;-72
2023/10/30 03:40:53;;;;;;;1999.90;999.90;;;11.40;99.90;;;;;;5114818;28;20028;-72
2023/10/30 03:43:18;;;;;;;1999.90;999.90;;;11.40;99.90;;;;;;5096102;28;20035;-72
2023/10/30 03:45:44;;;;;;;1999.90;999.90;;;11.40;99.90;;;;;;5114557;28;20048;-72
2023/10/30 03:48:10;;;;;;;1999.90;999.90;;;11.40;99.90;;;;;;5115007;28;20074;-72
2023/10/30 03:50:35;;;;;;;1999.90;999.90;;;11.40;99.90;;;;;;5114966;28;20513;-72
2023/10/30 03:53:01;;;;;;;1999.90;999.90;;;11.40;99.90;;;;;;5114795;28;20020;-72
2023/10/30 03:55:26;;;;;;;1999.90;999.90;;;11.40;99.90;;;;;;5114557;28;20044;-71
2023/10/30 03:57:52;;;;;;;1999.90;999.90;;;11.40;99.90;;;;;;5114604;28;20059;-72
2023/10/30 04:00:18;;;;;;;1999.90;999.90;;;11.40;99.90;;;;;;5114796;28;20037;-71
2023/10/30 04:02:44;;;;;;;1999.90;999.90;;;11.40;99.90;;;;;;5114755;28;20104;-71
2023/10/30 04:05:09;;;;;;;1999.90;999.90;;;11.40;99.90;;;;;;5114223;28;20068;-71
2023/10/30 04:07:35;;;;;;;1999.90;999.90;;;11.40;99.90;;;;;;5114242;28;20111;-71
2023/10/30 04:10:01;;;;;;;1999.90;999.90;;;11.30;99.90;;;;;;5114607;28;20081;-70
2023/10/30 04:12:27;;;;;;;1999.90;999.90;;;11.40;99.90;;;;;;5114431;28;20070;-71
2023/10/30 04:14:52;;;;;;;1999.90;999.90;;;11.30;99.90;;;;;;5114134;28;20036;-71
2023/10/30 04:17:18;;;;;;;1999.90;999.90;;;11.30;99.90;;;;;;5114295;28;20031;-71
2023/10/30 04:19:43;;;;;;;1999.90;999.90;;;11.30;99.90;;;;;;5115545;27;20543;-73
2023/10/30 04:22:09;;;;;;;1999.90;999.90;;;11.30;99.90;;;;;;5117820;28;20756;-71
2023/10/30 04:24:34;;;;;;;1999.90;999.90;;;11.30;99.90;;;;;;5117559;28;20040;-71
2023/10/30 04:27:00;;;;;;;1999.90;999.90;;;11.30;99.90;;;;;;5117679;28;20071;-74
2023/10/30 04:29:26;;;;;;;1999.90;999.90;;;11.30;99.90;;;;;;5117508;28;20097;-71
2023/10/30 04:31:52;;;;;;;1999.90;999.90;;;11.30;99.90;;;;;;5117740;28;20035;-71
2023/10/30 04:34:19;;;;;;;1999.90;999.90;;;11.30;99.90;;;;;;5117761;28;20394;-71
2023/10/30 04:36:45;;;;;;;1999.90;999.90;;;11.30;99.90;;;;;;5117690;28;20062;-71
2023/10/30 04:39:10;;;;;;;1999.90;999.90;;;11.30;99.90;;;;;;5117809;28;20089;-71
2023/10/30 04:41:36;;;;;;;1999.90;999.90;;;11.30;99.90;;;;;;5117444;28;20397;-71
2023/10/30 04:44:02;;;;;;;1999.90;999.90;;;11.20;99.90;;;;;;5098655;28;20043;-71
2023/10/30 04:46:28;;;;;;;1999.90;999.90;;;11.30;99.90;;;;;;5117441;28;20032;-70
2023/10/30 04:48:53;;;;;;;1999.90;999.90;;;11.20;99.90;;;;;;5117341;28;20477;-73
2023/10/30 04:51:19;;;;;;;1999.90;999.90;;;11.20;99.90;;;;;;5117577;28;20044;-70
2023/10/30 04:53:45;;;;;;;1999.90;999.90;;;11.20;99.90;;;;;;5098542;28;20450;-70
2023/10/30 04:56:10;;;;;;;1999.90;999.90;;;11.20;99.90;;;;;;5098412;28;20568;-71
2023/10/30 04:58:36;;;;;;;1999.90;999.90;;;11.20;99.90;;;;;;5117237;28;20385;-70
2023/10/30 05:01:09;;;;;;;1999.90;999.90;;;11.30;99.90;;;;;;5117603;28;20035;-71
2023/10/30 05:03:35;;;;;;;1999.90;999.90;;;11.30;99.90;;;;;;5117051;28;20033;-71
2023/10/30 05:06:04;;;;;;;1999.90;999.90;;;11.30;99.90;;;;;;5116792;28;20121;-72
2023/10/30 05:08:30;;;;;;;1999.90;999.90;;;11.30;99.90;;;;;;5117270;28;20024;-71
2023/10/30 05:10:56;;;;;;;1999.90;999.90;;;11.30;99.90;;;;;;5116886;28;20485;-71
2023/10/30 05:13:21;;;;;;;1999.90;999.90;;;11.30;99.90;;;;;;5116854;28;20032;-72
2023/10/30 05:15:47;;;;;;;1999.90;999.90;;;11.20;99.90;;;;;;5116947;28;20032;-71
2023/10/30 05:18:21;;;;;;;1999.90;999.90;;;11.20;99.90;;;;;;5098668;28;20119;-71
2023/10/30 05:20:46;;;;;;;1999.90;999.90;;;11.10;99.90;;;;;;5117328;28;20028;-71
2023/10/30 05:23:12;;;;;;;1999.90;999.90;;;11.10;99.90;;;;;;5098361;28;20043;-71
2023/10/30 05:25:38;;;;;;;1999.90;999.90;;;11.00;99.90;;;;;;5116880;28;20036;-72
2023/10/30 05:28:04;;;;;;;1999.90;999.90;;;11.00;99.90;;;;;;5116802;28;20817;-70
2023/10/30 05:30:30;;;;;;;1999.90;999.90;;;11.10;99.90;;;;;;5116835;27;20032;-70
2023/10/30 05:32:56;;;;;;;1999.90;999.90;;;11.00;99.90;;;;;;5116563;28;20383;-71
2023/10/30 05:35:22;;;;;;;1999.90;999.90;;;11.10;99.90;;;;;;5098016;28;20089;-71
2023/10/30 05:37:47;;;;;;;1999.90;999.90;;;11.10;99.90;;;;;;5116471;28;20028;-71
2023/10/30 05:40:13;;;;;;;1999.90;999.90;;;11.10;99.90;;;;;;5117006;28;20078;-71
2023/10/30 05:42:38;;;;;;;1999.90;999.90;;;11.10;99.90;;;;;;5116637;28;20490;-70
2023/10/30 05:45:05;;;;;;;1999.90;999.90;;;11.10;99.90;;;;;;5116541;28;20036;-71
2023/10/30 05:47:31;;;;;;;1999.90;999.90;;;11.00;99.90;;;;;;5116330;28;20039;-71
2023/10/30 05:49:57;;;;;;;1999.90;999.90;;;11.00;99.90;;;;;;5116443;28;20032;-70
2023/10/30 05:52:23;;;;;;;1999.90;999.90;;;11.00;99.90;;;;;;5116082;28;20081;-70
2023/10/30 05:54:48;;;;;;;1999.90;999.90;;;11.00;99.90;;;;;;5115744;28;20031;-71
2023/10/30 05:57:15;;;;;;;1999.90;999.90;;;11.00;99.90;;;;;;5115907;28;20432;-70
2023/10/30 05:59:41;;;;;;;1999.90;999.90;;;10.90;99.90;;;;;;5106748;28;20059;-71
2023/10/30 06:02:06;;;;;;;1999.90;999.90;;;10.90;99.90;;;;;;5088143;28;20115;-72
2023/10/30 06:04:32;;;;;;;1999.90;999.90;;;10.90;99.90;;;;;;5095918;28;20497;-71
2023/10/30 06:06:57;;;;;;;1999.90;999.90;;;10.90;99.90;;;;;;5095663;28;20527;-70
2023/10/30 06:09:24;;;;;;;1999.90;999.90;;;10.90;99.90;;;;;;5095952;28;20040;-72
2023/10/30 06:11:50;;;;;;;1999.90;999.90;;;10.90;99.90;;;;;;5095690;28;20104;-71
2023/10/30 06:14:17;;;;;;;1999.90;999.90;;;10.90;99.90;;;;;;5077696;28;20062;-72
2023/10/30 06:16:43;;;;;;;1999.90;999.90;;;10.90;99.90;;;;;;5097033;28;20028;-72
2023/10/30 06:19:09;;;;;;;1999.90;999.90;;;10.90;99.90;;;;;;5077888;28;20028;-73
2023/10/30 06:21:35;;;;;;;1999.90;999.90;;;10.90;99.90;;;;;;5096672;28;20036;-72
2023/10/30 06:24:00;;;;;;;1999.90;999.90;;;11.00;99.90;;;;;;5096857;28;20039;-76
2023/10/30 06:26:26;;;;;;;1999.90;999.90;;;11.00;99.90;;;;;;5097103;28;20402;-72
2023/10/30 06:28:52;;;;;;;1999.90;999.90;;;11.10;99.90;;;;;;5098692;28;20039;-72
2023/10/30 06:31:19;;;;;;;1999.90;999.90;;;11.10;99.90;;;;;;5095631;28;20059;-72
2023/10/30 06:33:46;;;;;;;1999.90;999.90;;;11.10;99.90;;;;;;5095324;28;20040;-73
2023/10/30 06:36:11;;;;;;;1999.90;999.90;;;11.20;99.90;;;;;;5095609;28;20154;-72
2023/10/30 06:38:37;;;;;;;1999.90;999.90;;;11.20;99.90;;;;;;5078246;28;20107;-72
2023/10/30 06:41:04;;;;;;;1999.90;999.90;;;11.30;99.90;;;;;;5096871;28;20036;-73
2023/10/30 06:43:30;;;;;;;1999.90;999.90;;;11.30;99.90;;;;;;5095406;28;20052;-73
2023/10/30 06:46:03;;;;;;;1999.90;999.90;;;11.40;99.90;;;;;;5096916;28;20029;-79
2023/10/30 06:48:29;;;;;;;1999.90;999.90;;;11.40;99.90;;;;;;5095944;28;20029;-72
2023/10/30 06:50:56;;;;;;;1999.90;999.90;;;11.50;99.90;;;;;;5096494;28;20397;-79
2023/10/30 06:53:22;;;;;;;1999.90;999.90;;;11.50;99.90;;;;;;5078646;28;20821;-76
2023/10/30 06:55:48;;;;;;;1999.90;999.90;;;11.60;99.90;;;;;;5095271;28;20051;-73
2023/10/30 06:58:14;;;;;;;1999.90;999.90;;;11.60;99.90;;;;;;5095819;28;20033;-72
2023/10/30 07:00:39;;;;;;;1999.90;999.90;;;11.50;99.90;;;;;;5095164;28;20074;-72
2023/10/30 07:03:05;;;;;;;1999.90;999.90;;;11.50;99.90;;;;;;5095356;28;20078;-72
2023/10/30 07:05:30;;;;;;;1999.90;999.90;;;11.40;99.90;;;;;;5095015;28;20086;-72
2023/10/30 07:07:56;;;;;;;1999.90;999.90;;;11.40;99.90;;;;;;5094949;28;20068;-73
2023/10/30 07:10:21;;;;;;;1999.90;999.90;;;11.30;99.90;;;;;;5095134;28;20037;-73
2023/10/30 07:12:47;;;;;;;1999.90;999.90;;;11.20;99.90;;;;;;5076694;28;20032;-73
2023/10/30 07:15:13;;;;;;;1999.90;999.90;;;11.10;99.90;;;;;;5096026;28;20120;-73
2023/10/30 07:17:38;;;;;;;1999.90;999.90;;;11.00;99.90;;;;;;5096015;28;20032;-73
2023/10/30 07:20:05;;;;;;;1999.90;999.90;;;10.90;99.90;;;;;;5096390;28;20032;-73
2023/10/30 07:22:30;;;;;;;1999.90;999.90;;;10.90;99.90;;;;;;5096569;28;20111;-71
2023/10/30 07:24:56;;;;;;;1999.90;999.90;;;10.80;99.90;;;;;;5095450;28;20127;-72
2023/10/30 07:27:25;;;;;;;1999.90;999.90;;;10.80;99.90;;;;;;5095522;28;20036;-72
2023/10/30 07:29:51;;;;;;;1999.90;999.90;;;10.90;99.90;;;;;;5095592;28;20159;-72
2023/10/30 07:32:17;;;;;;;1999.90;999.90;;;10.90;99.90;;;;;;5095597;28;20036;-71
2023/10/30 07:34:43;;;;;;;1999.90;999.90;;;11.00;99.90;;;;;;5094949;28;20039;-72
2023/10/30 07:37:08;;;;;;;1999.90;999.90;;;11.10;99.90;;;;;;5094544;28;20025;-72
2023/10/30 07:39:34;;;;;;;1999.90;999.90;;;11.20;99.90;;;;;;5095207;28;20117;-71
2023/10/30 07:42:00;;;;;;;1999.90;999.90;;;11.10;99.90;;;;;;5094821;28;20033;-72
2023/10/30 07:44:26;;;;;;;1999.90;999.90;;;11.10;99.90;;;;;;5094757;28;20031;-72
2023/10/30 07:46:51;;;;;;;1999.90;999.90;;;11.10;99.90;;;;;;5094773;28;20039;-72
2023/10/30 07:49:17;;;;;;;1999.90;999.90;;;11.10;99.90;;;;;;5094892;28;20120;-72
2023/10/30 07:51:43;;;;;;;1999.90;999.90;;;11.10;99.90;;;;;;5094436;28;20470;-71
2023/10/30 07:54:08;;;;;;;1999.90;999.90;;;11.10;99.90;;;;;;5094407;28;20044;-72
2023/10/30 07:56:34;;;;;;;1999.90;999.90;;;11.10;99.90;;;;;;5098009;28;20036;-72
2023/10/30 07:58:59;;;;;;;1999.90;999.90;;;11.20;99.90;;;;;;5098323;28;20438;-72
2023/10/30 08:01:25;;;;;;;1999.90;999.90;;;11.20;99.90;;;;;;5098379;28;20581;-71
2023/10/30 08:03:51;;;;;;;1999.90;999.90;;;11.30;99.90;;;;;;5098352;28;20068;-72
2023/10/30 08:06:16;;;;;;;1999.90;999.90;;;11.30;99.90;;;;;;5097837;28;20107;-73
2023/10/30 08:08:42;;;;;;;1999.90;999.90;;;11.40;99.90;;;;;;5098232;28;20036;-72
2023/10/30 08:11:09;;;;;;;1999.90;999.90;;;11.50;99.90;;;;;;5079514;28;20028;-70
2023/10/30 08:13:35;;;;;;;1999.90;999.90;;;11.60;99.90;;;;;;5097910;28;20502;-72
2023/10/30 08:16:00;;;;;;;1999.90;999.90;;;11.60;99.90;;;;;;5097721;28;20124;-72
2023/10/30 08:18:26;;;;;;;1999.90;999.90;;;11.70;99.90;;;;;;5098102;28;20039;-71
2023/10/30 08:20:52;;;;;;;1999.90;999.90;;;11.70;99.90;;;;;;5097648;28;20474;-72
2023/10/30 08:23:17;;;;;;;1999.90;999.90;;;11.80;99.90;;;;;;5097745;28;20117;-72
2023/10/30 08:25:43;;;;;;;1999.90;999.90;;;11.70;99.90;;;;;;5097586;28;20098;-69
2023/10/30 08:28:09;;;;;;;1999.90;999.90;;;11.80;99.90;;;;;;5098142;28;20037;-72
2023/10/30 08:30:34;;;;;;;1999.90;999.90;;;11.80;99.90;;;;;;5098262;28;20059;-72
2023/10/30 08:33:03;;;;;;;1999.90;999.90;;;11.90;99.90;;;;;;5097768;28;20036;-72
2023/10/30 08:35:29;;;;;;;1999.90;999.90;;;11.90;99.90;;;;;;5078914;28;20068;-72
2023/10/30 08:37:57;;;;;;;1999.90;999.90;;;11.90;99.90;;;;;;5096908;28;20021;-72
2023/10/30 08:40:24;;;;;;;1999.90;999.90;;;11.90;99.90;;;;;;5097760;28;20039;-72
2023/10/30 08:42:49;;;;;;;1999.90;999.90;;;12.00;99.90;;;;;;5098301;28;20113;-72
2023/10/30 08:45:15;;;;;;;1999.90;999.90;;;12.10;99.90;;;;;;5097647;28;20462;-72
2023/10/30 08:47:40;;;;;;;1999.90;999.90;;;12.10;99.90;;;;;;5097302;28;20028;-72
2023/10/30 08:50:07;;;;;;;1999.90;999.90;;;12.10;99.90;;;;;;5097936;28;20036;-72
2023/10/30 08:52:33;;;;;;;1999.90;999.90;;;12.20;99.90;;;;;;5097641;28;20032;-72
2023/10/30 08:54:58;;;;;;;1999.90;999.90;;;12.30;99.90;;;;;;5096676;28;20418;-70
2023/10/30 08:57:24;;;;;;;1999.90;999.90;;;12.30;99.90;;;;;;5097036;28;20033;-72
2023/10/30 08:59:50;;;;;;;1999.90;999.90;;;12.30;99.90;;;;;;5097670;28;20090;-72
2023/10/30 09:02:15;;;;;;;1999.90;999.90;;;12.40;99.90;;;;;;5097214;28;20056;-72
2023/10/30 09:04:41;;;;;;;1999.90;999.90;;;12.50;99.90;;;;;;5096906;28;20041;-72
2023/10/30 09:07:07;;;;;;;1999.90;999.90;;;12.60;99.90;;;;;;5096811;28;20025;-72
2023/10/30 09:09:35;;;;;;;1999.90;999.90;;;12.80;99.90;;;;;;5097227;28;20111;-72
2023/10/30 09:12:01;;;;;;;1999.90;999.90;;;12.80;99.90;;;;;;5097006;28;20049;-72
2023/10/30 09:14:27;;;;;;;1999.90;999.90;;;12.90;99.90;;;;;;5078535;28;20502;-72
2023/10/30 09:16:52;;;;;;;1999.90;999.90;;;13.00;99.90;;;;;;5096457;28;20029;-71
2023/10/30 09:19:18;;;;;;;1999.90;999.90;;;12.90;99.90;;;;;;5096951;28;20498;-72
2023/10/30 09:21:44;;;;;;;1999.90;999.90;;;12.90;99.90;;;;;;5097208;28;20078;-72
2023/10/30 09:24:09;;;;;;;1999.90;999.90;;;13.00;99.90;;;;;;5096879;28;20033;-72
2023/10/30 09:26:35;;;;;;;1999.90;999.90;;;13.00;99.90;;;;;;5096745;28;20402;-70
2023/10/30 09:29:00;;;;;;;1999.90;999.90;;;13.10;99.90;;;;;;5097111;28;20033;-72
2023/10/30 09:31:30;;;;;;;1999.90;999.90;;;13.20;99.90;;;;;;5096929;28;20032;-72
2023/10/30 09:33:56;;;;;;;1999.90;999.90;;;13.40;99.90;;;;;;5096270;28;20025;-71
2023/10/30 09:36:22;;;;;;;1999.90;999.90;;;13.40;99.90;;;;;;5096345;28;20490;-71
2023/10/30 09:38:47;;;;;;;1999.90;999.90;;;13.50;99.90;;;;;;5077775;28;20066;-72
2023/10/30 09:41:17;;;;;;;1999.90;999.90;;;13.50;99.90;;;;;;5096772;28;20035;-72
2023/10/30 09:43:43;;;;;;;1999.90;999.90;;;13.60;99.90;;;;;;5096234;28;20111;-72
2023/10/30 09:46:11;;;;;;;1999.90;999.90;;;13.70;99.90;;;;;;5077933;28;20402;-72
2023/10/30 09:48:38;;;;;;;1999.90;999.90;;;13.70;99.90;;;;;;5096690;28;20094;-72
2023/10/30 09:51:06;;;;;;;1999.90;999.90;;;13.80;99.90;;;;;;5096687;28;20036;-72
2023/10/30 09:56:03;;;;;;;1999.90;999.90;;;13.90;99.90;;;;;;5133264;27;20052;-73
2023/10/30 09:58:30;;;;;;;1999.90;999.90;;;13.90;99.90;;;;;;5137087;27;20040;-73
2023/10/30 10:00:57;;;;;;;1999.90;999.90;;;14.00;99.90;;;;;;5136996;27;20118;-73
2023/10/30 10:03:23;;;;;;;1999.90;999.90;;;14.00;99.90;;;;;;5137316;27;20038;-73
2023/10/30 10:05:59;;;;;;;1999.90;999.90;;;14.00;99.90;;;;;;5136379;27;20031;-73
2023/10/30 10:08:26;;;;;;;1999.90;999.90;;;14.00;99.90;;;;;;5135328;27;20035;-73
2023/10/30 10:11:02;;;;;;;1999.90;999.90;;;14.20;99.90;;;;;;5136910;27;20038;-73
2023/10/30 10:13:29;;;;;;;1999.90;999.90;;;14.30;99.90;;;;;;5136878;27;20028;-73
2023/10/30 10:15:55;;;;;;;1999.90;999.90;;;14.30;99.90;;;;;;5136685;27;20039;-73
2023/10/30 10:18:27;;;;;;;1999.90;999.90;;;14.40;99.90;;;;;;5136188;27;20024;-73
2023/10/30 10:21:08;;;;;;;1999.90;999.90;;;14.60;99.90;;;;;;5136460;27;20035;-73
2023/10/30 10:23:36;;;;;;;1999.90;999.90;;;14.70;99.90;;;;;;5135033;27;20055;-73
2023/10/30 10:26:13;;;;;;;1999.90;999.90;;;14.90;99.90;;;;;;5135092;27;20113;-73
2023/10/30 10:28:39;;;;;;;1999.90;999.90;;;15.00;99.90;;;;;;5137047;27;20027;-73
2023/10/30 10:31:05;;;;;;;1999.90;999.90;;;15.10;99.90;;;;;;5135243;27;20485;-73
2023/10/30 10:33:32;;;;;;;1999.90;999.90;;;15.20;99.90;;;;;;5136341;27;20472;-73
2023/10/30 10:36:01;;;;;;;1999.90;999.90;;;15.30;99.90;;;;;;5136171;27;20051;-73
2023/10/30 10:38:27;;;;;;;1999.90;999.90;;;15.30;99.90;;;;;;5136478;27;20028;-73
2023/10/30 10:40:53;;;;;;;1999.90;999.90;;;15.60;99.90;;;;;;5136787;27;20035;-73
2023/10/30 10:43:20;;;;;;;1999.90;999.90;;;15.60;99.90;;;;;;5135062;27;20342;-73
2023/10/30 10:45:52;;;;;;;1999.90;999.90;;;15.80;99.90;;;;;;5134909;27;20576;-73
2023/10/30 10:48:18;;;;;;;1999.90;999.90;;;15.70;99.90;;;;;;5135702;27;20035;-73
2023/10/30 10:50:45;;;;;;;1999.90;999.90;;;15.70;99.90;;;;;;5136379;27;20032;-74
2023/10/30 10:53:11;;;;;;;1999.90;999.90;;;15.70;99.90;;;;;;5138432;27;20122;-73
2023/10/30 10:55:43;;;;;;;1999.90;999.90;;;15.80;99.90;;;;;;5135949;27;20050;-74
2023/10/30 10:58:12;;;;;;;1999.90;999.90;;;15.70;99.90;;;;;;5136262;27;20519;-74
2023/10/30 11:00:48;;;;;;;1999.90;999.90;;;15.90;99.90;;;;;;5134502;27;20127;-74
2023/10/30 11:03:15;;;;;;;1999.90;999.90;;;15.90;99.90;;;;;;5136351;27;20033;-74
2023/10/30 11:05:42;;;;;;;1999.90;999.90;;;16.00;99.90;;;;;;5135814;27;20063;-74
2023/10/30 11:08:08;;;;;;;1999.90;999.90;;;16.10;99.90;;;;;;5134630;27;20489;-74
2023/10/30 11:11:05;;;;;;;1999.90;999.90;;;16.20;99.90;;;;;;5136369;27;20038;-74
2023/10/30 11:13:46;;;;;;;1999.90;999.90;;;16.30;99.90;;;;;;5134198;27;20070;-74
2023/10/30 11:16:19;;;;;;;1999.90;999.90;;;16.30;99.90;;;;;;5134098;27;20097;-74
2023/10/30 11:18:45;;;;;;;1999.90;999.90;;;16.40;99.90;;;;;;5134256;27;20621;-73
2023/10/30 11:21:12;;;;;;;1999.90;999.90;;;16.30;99.90;;;;;;5136019;27;20043;-74
2023/10/30 11:23:44;;;;;;;1999.90;999.90;;;16.20;99.90;;;;;;5135738;27;20475;-74
2023/10/30 11:26:10;;;;;;;1999.90;999.90;;;16.10;99.90;;;;;;5135597;27;20039;-74
2023/10/30 11:28:39;;;;;;;1999.90;999.90;;;16.20;99.90;;;;;;5135425;27;20460;-74
2023/10/30 11:31:08;;;;;;;1999.90;999.90;;;16.20;99.90;;;;;;5135399;27;20036;-74
2023/10/30 11:33:35;;;;;;;1999.90;999.90;;;16.20;99.90;;;;;;5134131;27;20019;-74
2023/10/30 11:36:23;;;;;;;1999.90;999.90;;;16.20;99.90;;;;;;5135137;27;20096;-74
2023/10/30 11:38:51;;;;;;;1999.90;999.90;;;16.10;99.90;;;;;;5135369;27;20024;-74
2023/10/30 11:41:17;;;;;;;1999.90;999.90;;;16.00;99.90;;;;;;5135078;27;20031;-74
2023/10/30 11:43:44;;;;;;;1999.90;999.90;;;16.00;99.90;;;;;;5135588;27;20019;-74
2023/10/30 11:46:12;;;;;;;1999.90;999.90;;;16.00;99.90;;;;;;5135263;27;20126;-73
2023/10/30 11:48:38;;;;;;;1999.90;999.90;;;16.00;99.90;;;;;;5133937;27;20488;-74
2023/10/30 11:51:04;;;;;;;1999.90;999.90;;;16.00;99.90;;;;;;5135651;27;20036;-74
2023/10/30 11:53:30;;;;;;;1999.90;999.90;;;16.10;99.90;;;;;;5135523;27;20055;-74
2023/10/30 11:55:57;;;;;;;1999.90;999.90;;;16.10;99.90;;;;;;5133092;27;20135;-73
2023/10/30 11:58:23;;;;;;;1999.90;999.90;;;16.00;99.90;;;;;;5135366;27;20038;-74